sensor_id;sensor_type;location;lat;lon;timestamp;temperature;humidity
8332;DHT22;4203;48.144;14.118;2022-08-19T00:00:32;17.90;99.90
8332;DHT22;4203;48.144;14.118;2022-08-19T00:02:59;17.90;99.90
8332;DHT22;4203;48.144;14.118;2022-08-19T00:05:26;17.90;99.90
8332;DHT22;4203;48.144;14.118;2022-08-19T00:07:53;17.90;99.90
8332;DHT22;4203;48.144;14.118;2022-08-19T00:10:22;17.90;99.90
8332;DHT22;4203;48.144;14.118;2022-08-19T00:12:49;17.90;99.90
8332;DHT22;4203;48.144;14.118;2022-08-19T00:15:20;17.80;99.90
8332;DHT22;4203;48.144;14.118;2022-08-19T00:17:47;17.80;99.90
8332;DHT22;4203;48.144;14.118;2022-08-19T00:20:17;17.80;99.90
8332;DHT22;4203;48.144;14.118;2022-08-19T00:22:46;17.80;99.90
8332;DHT22;4203;48.144;14.118;2022-08-19T00:25:14;17.70;99.90
8332;DHT22;4203;48.144;14.118;2022-08-19T00:27:43;17.70;99.90
8332;DHT22;4203;48.144;14.118;2022-08-19T00:30:11;17.70;99.90
8332;DHT22;4203;48.144;14.118;2022-08-19T00:32:39;17.60;99.90
8332;DHT22;4203;48.144;14.118;2022-08-19T00:35:07;17.60;99.90
8332;DHT22;4203;48.144;14.118;2022-08-19T00:37:35;17.60;99.90
8332;DHT22;4203;48.144;14.118;2022-08-19T00:40:04;17.50;99.90
8332;DHT22;4203;48.144;14.118;2022-08-19T00:42:32;17.50;99.90
8332;DHT22;4203;48.144;14.118;2022-08-19T00:45:01;17.50;99.90
8332;DHT22;4203;48.144;14.118;2022-08-19T00:47:28;17.40;99.90
8332;DHT22;4203;48.144;14.118;2022-08-19T00:49:57;17.40;99.90
8332;DHT22;4203;48.144;14.118;2022-08-19T00:52:28;17.40;99.90
8332;DHT22;4203;48.144;14.118;2022-08-19T00:54:57;17.40;99.90
8332;DHT22;4203;48.144;14.118;2022-08-19T00:57:29;17.30;99.90
8332;DHT22;4203;48.144;14.118;2022-08-19T00:59:58;17.30;99.90
8332;DHT22;4203;48.144;14.118;2022-08-19T01:02:28;17.30;99.90
8332;DHT22;4203;48.144;14.118;2022-08-19T01:04:55;17.40;99.90
8332;DHT22;4203;48.144;14.118;2022-08-19T01:07:23;17.50;99.90
8332;DHT22;4203;48.144;14.118;2022-08-19T01:09:50;17.40;99.90
8332;DHT22;4203;48.144;14.118;2022-08-19T01:12:18;17.30;99.90
8332;DHT22;4203;48.144;14.118;2022-08-19T01:14:45;17.30;99.90
8332;DHT22;4203;48.144;14.118;2022-08-19T01:17:14;17.20;99.90
8332;DHT22;4203;48.144;14.118;2022-08-19T01:19:43;17.20;99.90
8332;DHT22;4203;48.144;14.118;2022-08-19T01:22:20;17.20;99.90
8332;DHT22;4203;48.144;14.118;2022-08-19T01:24:50;16.80;99.90
8332;DHT22;4203;48.144;14.118;2022-08-19T01:27:18;17.30;99.90
8332;DHT22;4203;48.144;14.118;2022-08-19T01:29:45;17.30;99.90
8332;DHT22;4203;48.144;14.118;2022-08-19T01:32:16;17.40;99.90
8332;DHT22;4203;48.144;14.118;2022-08-19T01:34:45;17.40;99.90
8332;DHT22;4203;48.144;14.118;2022-08-19T01:37:14;17.30;99.90
8332;DHT22;4203;48.144;14.118;2022-08-19T01:39:42;17.30;99.90
8332;DHT22;4203;48.144;14.118;2022-08-19T01:42:11;17.30;99.90
8332;DHT22;4203;48.144;14.118;2022-08-19T01:44:38;17.30;99.90
8332;DHT22;4203;48.144;14.118;2022-08-19T01:47:07;17.30;99.90
8332;DHT22;4203;48.144;14.118;2022-08-19T01:49:35;17.30;99.90
8332;DHT22;4203;48.144;14.118;2022-08-19T01:52:04;17.20;99.90
8332;DHT22;4203;48.144;14.118;2022-08-19T01:54:32;17.20;99.90
8332;DHT22;4203;48.144;14.118;2022-08-19T01:57:03;17.20;99.90
8332;DHT22;4203;48.144;14.118;2022-08-19T01:59:33;17.20;99.90
8332;DHT22;4203;48.144;14.118;2022-08-19T02:02:02;17.10;99.90
8332;DHT22;4203;48.144;14.118;2022-08-19T02:04:31;17.10;99.90
8332;DHT22;4203;48.144;14.118;2022-08-19T02:06:59;17.10;99.90
8332;DHT22;4203;48.144;14.118;2022-08-19T02:09:27;17.10;99.90
8332;DHT22;4203;48.144;14.118;2022-08-19T02:11:54;17.10;99.90
8332;DHT22;4203;48.144;14.118;2022-08-19T02:14:21;17.10;99.90
8332;DHT22;4203;48.144;14.118;2022-08-19T02:16:50;17.10;99.90
8332;DHT22;4203;48.144;14.118;2022-08-19T02:19:17;17.10;99.90
8332;DHT22;4203;48.144;14.118;2022-08-19T02:21:44;17.10;99.90
8332;DHT22;4203;48.144;14.118;2022-08-19T02:24:11;17.20;99.90
8332;DHT22;4203;48.144;14.118;2022-08-19T02:26:39;17.20;99.90
8332;DHT22;4203;48.144;14.118;2022-08-19T02:29:06;17.20;99.90
8332;DHT22;4203;48.144;14.118;2022-08-19T02:31:33;17.20;99.90
8332;DHT22;4203;48.144;14.118;2022-08-19T02:34:02;17.20;99.90
8332;DHT22;4203;48.144;14.118;2022-08-19T02:36:30;17.20;99.90
8332;DHT22;4203;48.144;14.118;2022-08-19T02:38:57;17.20;99.90
8332;DHT22;4203;48.144;14.118;2022-08-19T02:41:26;17.20;99.90
8332;DHT22;4203;48.144;14.118;2022-08-19T02:43:55;17.30;99.90
8332;DHT22;4203;48.144;14.118;2022-08-19T02:46:25;17.40;99.90
8332;DHT22;4203;48.144;14.118;2022-08-19T02:48:54;17.40;99.90
8332;DHT22;4203;48.144;14.118;2022-08-19T02:51:26;17.50;99.90
8332;DHT22;4203;48.144;14.118;2022-08-19T02:53:54;17.40;99.90
8332;DHT22;4203;48.144;14.118;2022-08-19T02:56:21;17.50;99.90
8332;DHT22;4203;48.144;14.118;2022-08-19T02:58:50;17.40;99.90
8332;DHT22;4203;48.144;14.118;2022-08-19T03:01:21;17.30;99.90
8332;DHT22;4203;48.144;14.118;2022-08-19T03:03:49;17.30;99.90
8332;DHT22;4203;48.144;14.118;2022-08-19T03:06:17;17.40;99.90
8332;DHT22;4203;48.144;14.118;2022-08-19T03:08:46;17.30;99.90
8332;DHT22;4203;48.144;14.118;2022-08-19T03:11:15;17.30;99.90
8332;DHT22;4203;48.144;14.118;2022-08-19T03:13:42;17.20;99.90
8332;DHT22;4203;48.144;14.118;2022-08-19T03:16:10;17.20;99.90
8332;DHT22;4203;48.144;14.118;2022-08-19T03:18:37;17.20;99.90
8332;DHT22;4203;48.144;14.118;2022-08-19T03:21:05;17.20;99.90
8332;DHT22;4203;48.144;14.118;2022-08-19T03:23:33;17.20;99.90
8332;DHT22;4203;48.144;14.118;2022-08-19T03:26:03;17.20;99.90
8332;DHT22;4203;48.144;14.118;2022-08-19T03:28:32;17.20;99.90
8332;DHT22;4203;48.144;14.118;2022-08-19T03:31:01;17.20;99.90
8332;DHT22;4203;48.144;14.118;2022-08-19T03:33:30;17.30;99.90
8332;DHT22;4203;48.144;14.118;2022-08-19T03:36:06;17.50;99.90
8332;DHT22;4203;48.144;14.118;2022-08-19T03:38:34;17.60;99.90
8332;DHT22;4203;48.144;14.118;2022-08-19T03:41:05;17.70;99.90
8332;DHT22;4203;48.144;14.118;2022-08-19T03:43:35;17.70;99.90
8332;DHT22;4203;48.144;14.118;2022-08-19T03:46:05;17.70;99.90
8332;DHT22;4203;48.144;14.118;2022-08-19T03:48:33;17.60;99.90
8332;DHT22;4203;48.144;14.118;2022-08-19T03:51:01;17.70;99.90
8332;DHT22;4203;48.144;14.118;2022-08-19T03:53:30;17.80;99.90
8332;DHT22;4203;48.144;14.118;2022-08-19T03:55:57;17.80;99.90
8332;DHT22;4203;48.144;14.118;2022-08-19T03:58:29;17.80;99.90
8332;DHT22;4203;48.144;14.118;2022-08-19T04:00:56;17.90;99.90
8332;DHT22;4203;48.144;14.118;2022-08-19T04:03:24;18.10;99.90
8332;DHT22;4203;48.144;14.118;2022-08-19T04:05:52;18.10;99.90
8332;DHT22;4203;48.144;14.118;2022-08-19T04:08:20;18.20;99.90
8332;DHT22;4203;48.144;14.118;2022-08-19T04:10:48;18.30;99.90
8332;DHT22;4203;48.144;14.118;2022-08-19T04:13:17;18.30;99.90
8332;DHT22;4203;48.144;14.118;2022-08-19T04:15:46;18.40;99.90
8332;DHT22;4203;48.144;14.118;2022-08-19T04:18:13;18.60;99.90
8332;DHT22;4203;48.144;14.118;2022-08-19T04:20:42;18.60;99.90
8332;DHT22;4203;48.144;14.118;2022-08-19T04:23:09;18.70;99.90
8332;DHT22;4203;48.144;14.118;2022-08-19T04:25:39;18.70;99.90
8332;DHT22;4203;48.144;14.118;2022-08-19T04:28:07;18.70;99.90
8332;DHT22;4203;48.144;14.118;2022-08-19T04:30:39;18.80;99.90
8332;DHT22;4203;48.144;14.118;2022-08-19T04:33:09;18.80;99.90
8332;DHT22;4203;48.144;14.118;2022-08-19T04:35:38;18.80;99.90
8332;DHT22;4203;48.144;14.118;2022-08-19T04:38:05;18.80;99.90
8332;DHT22;4203;48.144;14.118;2022-08-19T04:40:33;18.90;99.90
8332;DHT22;4203;48.144;14.118;2022-08-19T04:43:18;18.90;99.90
8332;DHT22;4203;48.144;14.118;2022-08-19T04:45:45;18.90;99.90
8332;DHT22;4203;48.144;14.118;2022-08-19T04:48:14;18.90;99.90
8332;DHT22;4203;48.144;14.118;2022-08-19T04:50:52;18.90;99.90
8332;DHT22;4203;48.144;14.118;2022-08-19T04:53:23;18.90;99.90
8332;DHT22;4203;48.144;14.118;2022-08-19T04:55:51;18.90;99.90
8332;DHT22;4203;48.144;14.118;2022-08-19T04:58:18;18.80;99.90
8332;DHT22;4203;48.144;14.118;2022-08-19T05:00:45;18.80;99.90
8332;DHT22;4203;48.144;14.118;2022-08-19T05:03:14;18.80;99.90
8332;DHT22;4203;48.144;14.118;2022-08-19T05:05:43;18.80;99.90
8332;DHT22;4203;48.144;14.118;2022-08-19T05:08:11;18.70;99.90
8332;DHT22;4203;48.144;14.118;2022-08-19T05:10:39;18.60;99.90
8332;DHT22;4203;48.144;14.118;2022-08-19T05:13:07;18.60;99.90
8332;DHT22;4203;48.144;14.118;2022-08-19T05:15:35;18.50;99.90
8332;DHT22;4203;48.144;14.118;2022-08-19T05:18:02;18.40;99.90
8332;DHT22;4203;48.144;14.118;2022-08-19T05:20:48;18.40;99.90
8332;DHT22;4203;48.144;14.118;2022-08-19T05:23:32;18.40;99.90
8332;DHT22;4203;48.144;14.118;2022-08-19T05:26:00;18.40;99.90
8332;DHT22;4203;48.144;14.118;2022-08-19T05:28:27;18.40;99.90
8332;DHT22;4203;48.144;14.118;2022-08-19T05:30:54;18.40;99.90
8332;DHT22;4203;48.144;14.118;2022-08-19T05:33:22;18.40;99.90
8332;DHT22;4203;48.144;14.118;2022-08-19T05:35:51;18.40;99.90
8332;DHT22;4203;48.144;14.118;2022-08-19T05:38:18;18.40;99.90
8332;DHT22;4203;48.144;14.118;2022-08-19T05:40:46;18.40;99.90
8332;DHT22;4203;48.144;14.118;2022-08-19T05:43:15;18.40;99.90
8332;DHT22;4203;48.144;14.118;2022-08-19T05:45:43;18.50;99.90
8332;DHT22;4203;48.144;14.118;2022-08-19T05:48:11;18.50;99.90
8332;DHT22;4203;48.144;14.118;2022-08-19T05:50:39;18.60;99.90
8332;DHT22;4203;48.144;14.118;2022-08-19T05:53:08;18.70;99.90
8332;DHT22;4203;48.144;14.118;2022-08-19T05:55:36;18.80;99.90
8332;DHT22;4203;48.144;14.118;2022-08-19T05:58:04;18.90;99.90
8332;DHT22;4203;48.144;14.118;2022-08-19T06:00:33;18.90;99.90
8332;DHT22;4203;48.144;14.118;2022-08-19T06:03:00;18.90;99.90
8332;DHT22;4203;48.144;14.118;2022-08-19T06:05:29;19.00;99.90
8332;DHT22;4203;48.144;14.118;2022-08-19T06:07:57;19.00;99.90
8332;DHT22;4203;48.144;14.118;2022-08-19T06:10:26;19.00;99.90
8332;DHT22;4203;48.144;14.118;2022-08-19T06:12:53;19.10;99.90
8332;DHT22;4203;48.144;14.118;2022-08-19T06:15:22;19.30;99.90
8332;DHT22;4203;48.144;14.118;2022-08-19T06:17:51;19.50;99.90
8332;DHT22;4203;48.144;14.118;2022-08-19T06:20:18;19.60;99.90
8332;DHT22;4203;48.144;14.118;2022-08-19T06:22:49;19.70;99.90
8332;DHT22;4203;48.144;14.118;2022-08-19T06:25:17;19.80;99.90
8332;DHT22;4203;48.144;14.118;2022-08-19T06:27:46;19.80;99.90
8332;DHT22;4203;48.144;14.118;2022-08-19T06:30:14;19.90;99.90
8332;DHT22;4203;48.144;14.118;2022-08-19T06:32:41;19.90;99.90
8332;DHT22;4203;48.144;14.118;2022-08-19T06:35:08;20.10;99.90
8332;DHT22;4203;48.144;14.118;2022-08-19T06:37:36;20.20;99.90
8332;DHT22;4203;48.144;14.118;2022-08-19T06:40:05;20.20;99.90
8332;DHT22;4203;48.144;14.118;2022-08-19T06:42:34;20.20;99.90
8332;DHT22;4203;48.144;14.118;2022-08-19T06:45:02;20.30;99.90
8332;DHT22;4203;48.144;14.118;2022-08-19T06:47:30;20.60;99.90
8332;DHT22;4203;48.144;14.118;2022-08-19T06:49:58;20.80;99.90
8332;DHT22;4203;48.144;14.118;2022-08-19T06:52:28;21.20;99.90
8332;DHT22;4203;48.144;14.118;2022-08-19T06:54:55;21.50;99.90
8332;DHT22;4203;48.144;14.118;2022-08-19T06:57:24;21.60;99.90
8332;DHT22;4203;48.144;14.118;2022-08-19T06:59:51;21.50;99.90
8332;DHT22;4203;48.144;14.118;2022-08-19T07:02:20;21.50;99.90
8332;DHT22;4203;48.144;14.118;2022-08-19T07:04:51;21.60;99.90
8332;DHT22;4203;48.144;14.118;2022-08-19T07:07:20;21.70;99.90
8332;DHT22;4203;48.144;14.118;2022-08-19T07:09:49;21.80;99.90
8332;DHT22;4203;48.144;14.118;2022-08-19T07:12:19;21.80;99.90
8332;DHT22;4203;48.144;14.118;2022-08-19T07:14:46;21.70;99.90
8332;DHT22;4203;48.144;14.118;2022-08-19T07:17:15;21.50;99.90
8332;DHT22;4203;48.144;14.118;2022-08-19T07:19:44;21.40;99.90
8332;DHT22;4203;48.144;14.118;2022-08-19T07:22:11;21.40;99.90
8332;DHT22;4203;48.144;14.118;2022-08-19T07:24:38;21.30;99.90
8332;DHT22;4203;48.144;14.118;2022-08-19T07:27:06;21.30;99.90
8332;DHT22;4203;48.144;14.118;2022-08-19T07:29:36;21.30;99.90
8332;DHT22;4203;48.144;14.118;2022-08-19T07:32:04;21.20;99.90
8332;DHT22;4203;48.144;14.118;2022-08-19T07:34:32;21.20;99.90
8332;DHT22;4203;48.144;14.118;2022-08-19T07:37:03;21.20;99.90
8332;DHT22;4203;48.144;14.118;2022-08-19T07:39:34;21.20;99.90
8332;DHT22;4203;48.144;14.118;2022-08-19T07:42:05;21.20;99.90
8332;DHT22;4203;48.144;14.118;2022-08-19T07:44:34;21.30;99.90
8332;DHT22;4203;48.144;14.118;2022-08-19T07:47:02;21.60;99.90
8332;DHT22;4203;48.144;14.118;2022-08-19T07:49:30;21.70;99.90
8332;DHT22;4203;48.144;14.118;2022-08-19T07:52:00;21.80;99.90
8332;DHT22;4203;48.144;14.118;2022-08-19T07:54:31;22.00;99.90
8332;DHT22;4203;48.144;14.118;2022-08-19T07:57:00;22.30;99.90
8332;DHT22;4203;48.144;14.118;2022-08-19T07:59:28;22.50;99.90
8332;DHT22;4203;48.144;14.118;2022-08-19T08:01:56;22.60;99.90
8332;DHT22;4203;48.144;14.118;2022-08-19T08:04:25;22.80;99.90
8332;DHT22;4203;48.144;14.118;2022-08-19T08:07:10;23.10;99.90
8332;DHT22;4203;48.144;14.118;2022-08-19T08:09:56;23.50;99.90
8332;DHT22;4203;48.144;14.118;2022-08-19T08:12:28;23.80;99.90
8332;DHT22;4203;48.144;14.118;2022-08-19T08:14:58;23.90;99.90
8332;DHT22;4203;48.144;14.118;2022-08-19T08:17:28;23.90;99.90
8332;DHT22;4203;48.144;14.118;2022-08-19T08:19:58;24.00;99.90
8332;DHT22;4203;48.144;14.118;2022-08-19T08:22:25;23.90;99.90
8332;DHT22;4203;48.144;14.118;2022-08-19T08:25:13;24.10;99.90
8332;DHT22;4203;48.144;14.118;2022-08-19T08:27:43;24.30;99.90
8332;DHT22;4203;48.144;14.118;2022-08-19T08:30:15;24.90;99.90
8332;DHT22;4203;48.144;14.118;2022-08-19T08:32:42;25.30;99.90
8332;DHT22;4203;48.144;14.118;2022-08-19T08:35:14;25.60;99.90
8332;DHT22;4203;48.144;14.118;2022-08-19T08:37:42;26.20;99.90
8332;DHT22;4203;48.144;14.118;2022-08-19T08:40:18;26.90;99.90
8332;DHT22;4203;48.144;14.118;2022-08-19T08:42:51;27.50;99.90
8332;DHT22;4203;48.144;14.118;2022-08-19T08:45:24;28.00;99.90
8332;DHT22;4203;48.144;14.118;2022-08-19T08:47:53;28.50;99.90
8332;DHT22;4203;48.144;14.118;2022-08-19T08:50:27;28.80;99.90
8332;DHT22;4203;48.144;14.118;2022-08-19T08:52:57;29.20;99.90
8332;DHT22;4203;48.144;14.118;2022-08-19T08:55:28;29.20;99.90
8332;DHT22;4203;48.144;14.118;2022-08-19T08:58:00;29.10;99.90
8332;DHT22;4203;48.144;14.118;2022-08-19T09:00:30;29.50;99.90
8332;DHT22;4203;48.144;14.118;2022-08-19T09:02:59;29.80;99.90
8332;DHT22;4203;48.144;14.118;2022-08-19T09:05:35;29.60;99.90
8332;DHT22;4203;48.144;14.118;2022-08-19T09:08:10;29.30;99.90
8332;DHT22;4203;48.144;14.118;2022-08-19T09:10:44;29.30;99.90
8332;DHT22;4203;48.144;14.118;2022-08-19T09:13:20;29.20;99.90
8332;DHT22;4203;48.144;14.118;2022-08-19T09:15:54;28.90;99.90
8332;DHT22;4203;48.144;14.118;2022-08-19T09:18:23;28.50;99.90
8332;DHT22;4203;48.144;14.118;2022-08-19T09:20:51;28.20;99.90
8332;DHT22;4203;48.144;14.118;2022-08-19T09:23:18;28.00;99.90
8332;DHT22;4203;48.144;14.118;2022-08-19T09:25:47;28.10;99.90
8332;DHT22;4203;48.144;14.118;2022-08-19T09:28:14;28.40;99.90
8332;DHT22;4203;48.144;14.118;2022-08-19T09:30:42;28.80;99.90
8332;DHT22;4203;48.144;14.118;2022-08-19T09:33:09;29.00;99.90
8332;DHT22;4203;48.144;14.118;2022-08-19T09:35:36;29.00;99.90
8332;DHT22;4203;48.144;14.118;2022-08-19T09:38:03;28.60;99.90
8332;DHT22;4203;48.144;14.118;2022-08-19T09:40:31;28.30;99.90
8332;DHT22;4203;48.144;14.118;2022-08-19T09:42:59;27.90;99.90
8332;DHT22;4203;48.144;14.118;2022-08-19T09:45:28;27.90;99.90
8332;DHT22;4203;48.144;14.118;2022-08-19T09:47:56;27.90;99.90
8332;DHT22;4203;48.144;14.118;2022-08-19T09:50:24;28.00;99.90
8332;DHT22;4203;48.144;14.118;2022-08-19T09:52:51;28.00;99.90
8332;DHT22;4203;48.144;14.118;2022-08-19T09:55:22;28.00;99.90
8332;DHT22;4203;48.144;14.118;2022-08-19T09:57:50;27.90;99.90
8332;DHT22;4203;48.144;14.118;2022-08-19T10:00:21;27.90;99.90
8332;DHT22;4203;48.144;14.118;2022-08-19T10:02:48;27.90;99.90
8332;DHT22;4203;48.144;14.118;2022-08-19T10:05:16;28.00;99.90
8332;DHT22;4203;48.144;14.118;2022-08-19T10:08:00;28.30;99.90
8332;DHT22;4203;48.144;14.118;2022-08-19T10:10:27;28.50;99.90
8332;DHT22;4203;48.144;14.118;2022-08-19T10:12:55;28.80;99.90
8332;DHT22;4203;48.144;14.118;2022-08-19T10:15:24;29.10;99.90
8332;DHT22;4203;48.144;14.118;2022-08-19T10:17:51;29.60;99.90
8332;DHT22;4203;48.144;14.118;2022-08-19T10:20:18;30.30;99.90
8332;DHT22;4203;48.144;14.118;2022-08-19T10:22:46;31.30;99.90
8332;DHT22;4203;48.144;14.118;2022-08-19T10:25:13;31.90;99.90
8332;DHT22;4203;48.144;14.118;2022-08-19T10:27:42;32.30;99.90
8332;DHT22;4203;48.144;14.118;2022-08-19T10:30:10;32.80;99.90
8332;DHT22;4203;48.144;14.118;2022-08-19T10:32:39;33.00;99.90
8332;DHT22;4203;48.144;14.118;2022-08-19T10:35:07;32.90;99.90
8332;DHT22;4203;48.144;14.118;2022-08-19T10:37:35;32.30;99.90
8332;DHT22;4203;48.144;14.118;2022-08-19T10:40:04;31.50;99.90
8332;DHT22;4203;48.144;14.118;2022-08-19T10:42:32;31.00;99.90
8332;DHT22;4203;48.144;14.118;2022-08-19T10:45:00;30.70;99.90
8332;DHT22;4203;48.144;14.118;2022-08-19T10:47:27;30.60;99.90
8332;DHT22;4203;48.144;14.118;2022-08-19T10:49:56;30.80;99.90
8332;DHT22;4203;48.144;14.118;2022-08-19T10:52:42;30.80;99.90
8332;DHT22;4203;48.144;14.118;2022-08-19T10:55:12;30.70;99.90
8332;DHT22;4203;48.144;14.118;2022-08-19T10:57:57;30.40;99.90
8332;DHT22;4203;48.144;14.118;2022-08-19T11:00:25;29.90;99.90
8332;DHT22;4203;48.144;14.118;2022-08-19T11:02:52;29.60;99.90
8332;DHT22;4203;48.144;14.118;2022-08-19T11:05:20;29.40;99.90
8332;DHT22;4203;48.144;14.118;2022-08-19T11:07:48;29.20;99.90
8332;DHT22;4203;48.144;14.118;2022-08-19T11:10:16;29.40;99.90
8332;DHT22;4203;48.144;14.118;2022-08-19T11:12:45;29.70;99.90
8332;DHT22;4203;48.144;14.118;2022-08-19T11:15:14;29.80;99.90
8332;DHT22;4203;48.144;14.118;2022-08-19T11:17:41;29.90;99.90
8332;DHT22;4203;48.144;14.118;2022-08-19T11:20:10;30.10;99.90
8332;DHT22;4203;48.144;14.118;2022-08-19T11:22:40;30.00;99.90
8332;DHT22;4203;48.144;14.118;2022-08-19T11:25:09;29.90;99.90
8332;DHT22;4203;48.144;14.118;2022-08-19T11:27:38;30.20;99.90
8332;DHT22;4203;48.144;14.118;2022-08-19T11:30:09;30.60;99.90
8332;DHT22;4203;48.144;14.118;2022-08-19T11:32:37;30.60;99.90
8332;DHT22;4203;48.144;14.118;2022-08-19T11:35:05;30.80;99.90
8332;DHT22;4203;48.144;14.118;2022-08-19T11:37:32;31.30;99.90
8332;DHT22;4203;48.144;14.118;2022-08-19T11:40:05;31.90;99.90
8332;DHT22;4203;48.144;14.118;2022-08-19T11:42:32;32.40;99.90
8332;DHT22;4203;48.144;14.118;2022-08-19T11:45:17;32.60;99.90
8332;DHT22;4203;48.144;14.118;2022-08-19T11:47:44;32.20;99.90
8332;DHT22;4203;48.144;14.118;2022-08-19T11:50:12;31.80;99.90
8332;DHT22;4203;48.144;14.118;2022-08-19T11:52:40;31.60;99.90
8332;DHT22;4203;48.144;14.118;2022-08-19T11:55:09;31.60;99.90
8332;DHT22;4203;48.144;14.118;2022-08-19T11:57:37;31.60;99.90
8332;DHT22;4203;48.144;14.118;2022-08-19T12:00:07;31.30;99.90
8332;DHT22;4203;48.144;14.118;2022-08-19T12:02:36;31.10;99.90
8332;DHT22;4203;48.144;14.118;2022-08-19T12:05:03;30.90;99.90
8332;DHT22;4203;48.144;14.118;2022-08-19T12:07:31;30.50;99.90
8332;DHT22;4203;48.144;14.118;2022-08-19T12:09:59;30.10;99.90
8332;DHT22;4203;48.144;14.118;2022-08-19T12:12:28;29.60;99.90
8332;DHT22;4203;48.144;14.118;2022-08-19T12:14:55;29.40;99.90
8332;DHT22;4203;48.144;14.118;2022-08-19T12:17:24;29.30;99.90
8332;DHT22;4203;48.144;14.118;2022-08-19T12:19:52;29.20;99.90
8332;DHT22;4203;48.144;14.118;2022-08-19T12:22:19;29.20;99.90
8332;DHT22;4203;48.144;14.118;2022-08-19T12:24:47;29.20;99.90
8332;DHT22;4203;48.144;14.118;2022-08-19T12:27:16;29.20;99.90
8332;DHT22;4203;48.144;14.118;2022-08-19T12:29:45;29.10;99.90
8332;DHT22;4203;48.144;14.118;2022-08-19T12:32:12;29.10;99.90
8332;DHT22;4203;48.144;14.118;2022-08-19T12:34:39;29.20;99.90
8332;DHT22;4203;48.144;14.118;2022-08-19T12:37:07;29.20;99.90
8332;DHT22;4203;48.144;14.118;2022-08-19T12:39:36;29.30;99.90
8332;DHT22;4203;48.144;14.118;2022-08-19T12:42:04;29.40;99.90
8332;DHT22;4203;48.144;14.118;2022-08-19T12:44:32;29.40;99.90
8332;DHT22;4203;48.144;14.118;2022-08-19T12:47:02;29.50;99.90
8332;DHT22;4203;48.144;14.118;2022-08-19T12:49:30;29.40;99.90
8332;DHT22;4203;48.144;14.118;2022-08-19T12:51:59;29.40;99.90
8332;DHT22;4203;48.144;14.118;2022-08-19T12:54:27;29.90;99.90
8332;DHT22;4203;48.144;14.118;2022-08-19T12:56:57;30.70;99.90
8332;DHT22;4203;48.144;14.118;2022-08-19T12:59:25;31.20;99.90
8332;DHT22;4203;48.144;14.118;2022-08-19T13:01:52;31.60;99.90
8332;DHT22;4203;48.144;14.118;2022-08-19T13:04:27;32.30;99.90
8332;DHT22;4203;48.144;14.118;2022-08-19T13:06:54;32.90;99.90
8332;DHT22;4203;48.144;14.118;2022-08-19T13:09:22;33.20;99.90
8332;DHT22;4203;48.144;14.118;2022-08-19T13:11:49;32.90;99.90
8332;DHT22;4203;48.144;14.118;2022-08-19T13:14:16;32.50;99.90
8332;DHT22;4203;48.144;14.118;2022-08-19T13:16:44;31.90;99.90
8332;DHT22;4203;48.144;14.118;2022-08-19T13:19:12;31.40;99.90
8332;DHT22;4203;48.144;14.118;2022-08-19T13:21:40;30.90;99.90
8332;DHT22;4203;48.144;14.118;2022-08-19T13:24:07;30.50;99.90
8332;DHT22;4203;48.144;14.118;2022-08-19T13:26:35;30.20;99.90
8332;DHT22;4203;48.144;14.118;2022-08-19T13:29:02;30.00;99.90
8332;DHT22;4203;48.144;14.118;2022-08-19T13:31:55;30.00;99.90
8332;DHT22;4203;48.144;14.118;2022-08-19T13:34:40;30.10;99.90
8332;DHT22;4203;48.144;14.118;2022-08-19T13:37:13;30.00;99.90
8332;DHT22;4203;48.144;14.118;2022-08-19T13:39:41;30.00;99.90
8332;DHT22;4203;48.144;14.118;2022-08-19T13:42:10;29.90;99.90
8332;DHT22;4203;48.144;14.118;2022-08-19T13:44:39;29.80;99.90
8332;DHT22;4203;48.144;14.118;2022-08-19T13:47:06;29.70;99.90
8332;DHT22;4203;48.144;14.118;2022-08-19T13:49:36;29.60;99.90
8332;DHT22;4203;48.144;14.118;2022-08-19T13:52:04;29.60;99.90
8332;DHT22;4203;48.144;14.118;2022-08-19T13:54:33;29.60;99.90
8332;DHT22;4203;48.144;14.118;2022-08-19T13:57:00;29.80;99.90
8332;DHT22;4203;48.144;14.118;2022-08-19T13:59:28;30.00;99.90
8332;DHT22;4203;48.144;14.118;2022-08-19T14:01:58;30.30;99.90
8332;DHT22;4203;48.144;14.118;2022-08-19T14:04:25;30.60;99.90
8332;DHT22;4203;48.144;14.118;2022-08-19T14:06:52;30.90;99.90
8332;DHT22;4203;48.144;14.118;2022-08-19T14:09:20;31.20;99.90
8332;DHT22;4203;48.144;14.118;2022-08-19T14:11:49;31.60;99.90
8332;DHT22;4203;48.144;14.118;2022-08-19T14:14:16;32.10;99.90
8332;DHT22;4203;48.144;14.118;2022-08-19T14:16:44;32.40;99.90
8332;DHT22;4203;48.144;14.118;2022-08-19T14:19:11;32.70;99.90
8332;DHT22;4203;48.144;14.118;2022-08-19T14:21:38;32.90;99.90
8332;DHT22;4203;48.144;14.118;2022-08-19T14:24:07;32.80;99.90
8332;DHT22;4203;48.144;14.118;2022-08-19T14:26:34;32.50;99.90
8332;DHT22;4203;48.144;14.118;2022-08-19T14:29:03;31.90;99.90
8332;DHT22;4203;48.144;14.118;2022-08-19T14:31:30;31.30;99.90
8332;DHT22;4203;48.144;14.118;2022-08-19T14:33:58;30.90;99.90
8332;DHT22;4203;48.144;14.118;2022-08-19T14:36:25;30.40;99.90
8332;DHT22;4203;48.144;14.118;2022-08-19T14:38:52;30.00;99.90
8332;DHT22;4203;48.144;14.118;2022-08-19T14:41:22;29.60;99.90
8332;DHT22;4203;48.144;14.118;2022-08-19T14:43:51;29.20;99.90
8332;DHT22;4203;48.144;14.118;2022-08-19T14:46:22;29.00;99.90
8332;DHT22;4203;48.144;14.118;2022-08-19T14:48:51;28.90;99.90
8332;DHT22;4203;48.144;14.118;2022-08-19T14:51:19;28.70;99.90
8332;DHT22;4203;48.144;14.118;2022-08-19T14:53:47;28.60;99.90
8332;DHT22;4203;48.144;14.118;2022-08-19T14:56:17;28.50;99.90
8332;DHT22;4203;48.144;14.118;2022-08-19T14:58:47;28.20;99.90
8332;DHT22;4203;48.144;14.118;2022-08-19T15:01:17;27.50;99.90
8332;DHT22;4203;48.144;14.118;2022-08-19T15:03:48;26.40;99.40
8332;DHT22;4203;48.144;14.118;2022-08-19T15:06:16;25.50;99.90
8332;DHT22;4203;48.144;14.118;2022-08-19T15:08:43;24.80;99.90
8332;DHT22;4203;48.144;14.118;2022-08-19T15:11:12;24.00;99.90
8332;DHT22;4203;48.144;14.118;2022-08-19T15:13:41;23.30;99.90
8332;DHT22;4203;48.144;14.118;2022-08-19T15:16:10;22.20;99.90
8332;DHT22;4203;48.144;14.118;2022-08-19T15:18:37;21.40;99.90
8332;DHT22;4203;48.144;14.118;2022-08-19T15:21:06;21.00;99.90
8332;DHT22;4203;48.144;14.118;2022-08-19T15:23:34;20.70;99.90
8332;DHT22;4203;48.144;14.118;2022-08-19T15:26:01;20.20;99.90
8332;DHT22;4203;48.144;14.118;2022-08-19T15:28:31;19.80;99.90
8332;DHT22;4203;48.144;14.118;2022-08-19T15:30:58;19.70;99.90
8332;DHT22;4203;48.144;14.118;2022-08-19T15:33:25;19.60;99.90
8332;DHT22;4203;48.144;14.118;2022-08-19T15:35:52;19.70;99.90
8332;DHT22;4203;48.144;14.118;2022-08-19T15:38:21;19.80;99.90
8332;DHT22;4203;48.144;14.118;2022-08-19T15:40:50;19.80;99.90
8332;DHT22;4203;48.144;14.118;2022-08-19T15:43:18;19.90;99.90
8332;DHT22;4203;48.144;14.118;2022-08-19T15:45:47;19.90;99.90
8332;DHT22;4203;48.144;14.118;2022-08-19T15:48:15;19.90;99.90
8332;DHT22;4203;48.144;14.118;2022-08-19T15:50:42;19.90;99.90
8332;DHT22;4203;48.144;14.118;2022-08-19T15:53:10;19.90;99.90
8332;DHT22;4203;48.144;14.118;2022-08-19T15:55:44;20.10;99.90